sensor_id;sensor_type;location;lat;lon;timestamp;P1;durP1;ratioP1;P2;durP2;ratioP2
13985;SDS011;7067;51.832;8.296;2023-07-13T00:01:34;6.35;;;1.80;;
13985;SDS011;7067;51.832;8.296;2023-07-13T00:03:59;3.72;;;2.30;;
13985;SDS011;7067;51.832;8.296;2023-07-13T00:06:25;5.18;;;2.05;;
13985;SDS011;7067;51.832;8.296;2023-07-13T00:08:51;3.65;;;2.22;;
13985;SDS011;7067;51.832;8.296;2023-07-13T00:11:16;5.50;;;2.08;;
13985;SDS011;7067;51.832;8.296;2023-07-13T00:13:42;2.67;;;1.90;;
13985;SDS011;7067;51.832;8.296;2023-07-13T00:16:08;2.40;;;1.98;;
13985;SDS011;7067;51.832;8.296;2023-07-13T00:18:34;2.08;;;1.70;;
13985;SDS011;7067;51.832;8.296;2023-07-13T00:20:59;5.25;;;2.20;;
13985;SDS011;7067;51.832;8.296;2023-07-13T00:23:38;4.68;;;2.35;;
13985;SDS011;7067;51.832;8.296;2023-07-13T00:26:06;4.80;;;2.55;;
13985;SDS011;7067;51.832;8.296;2023-07-13T00:28:32;2.42;;;2.00;;
13985;SDS011;7067;51.832;8.296;2023-07-13T00:30:58;2.05;;;1.90;;
13985;SDS011;7067;51.832;8.296;2023-07-13T00:33:23;3.60;;;2.00;;
13985;SDS011;7067;51.832;8.296;2023-07-13T00:35:49;5.55;;;2.20;;
13985;SDS011;7067;51.832;8.296;2023-07-13T00:38:15;3.15;;;1.77;;
13985;SDS011;7067;51.832;8.296;2023-07-13T00:40:40;4.70;;;2.20;;
13985;SDS011;7067;51.832;8.296;2023-07-13T00:43:13;3.38;;;1.88;;
13985;SDS011;7067;51.832;8.296;2023-07-13T00:48:08;6.20;;;2.40;;
13985;SDS011;7067;51.832;8.296;2023-07-13T00:50:34;3.72;;;1.60;;
13985;SDS011;7067;51.832;8.296;2023-07-13T00:52:59;4.28;;;2.45;;
13985;SDS011;7067;51.832;8.296;2023-07-13T00:55:25;3.08;;;2.03;;
13985;SDS011;7067;51.832;8.296;2023-07-13T00:57:50;2.42;;;1.85;;
13985;SDS011;7067;51.832;8.296;2023-07-13T01:00:16;2.80;;;1.83;;
13985;SDS011;7067;51.832;8.296;2023-07-13T01:02:43;7.07;;;1.90;;
13985;SDS011;7067;51.832;8.296;2023-07-13T01:05:12;3.30;;;2.00;;
13985;SDS011;7067;51.832;8.296;2023-07-13T01:07:42;2.50;;;1.80;;
13985;SDS011;7067;51.832;8.296;2023-07-13T01:10:09;2.97;;;1.90;;
13985;SDS011;7067;51.832;8.296;2023-07-13T01:12:35;2.72;;;1.60;;
13985;SDS011;7067;51.832;8.296;2023-07-13T01:15:01;2.13;;;1.48;;
13985;SDS011;7067;51.832;8.296;2023-07-13T01:17:27;5.38;;;2.45;;
13985;SDS011;7067;51.832;8.296;2023-07-13T01:19:54;3.15;;;1.73;;
13985;SDS011;7067;51.832;8.296;2023-07-13T01:22:20;3.67;;;2.00;;
13985;SDS011;7067;51.832;8.296;2023-07-13T01:24:50;4.15;;;1.70;;
13985;SDS011;7067;51.832;8.296;2023-07-13T01:27:16;3.53;;;2.15;;
13985;SDS011;7067;51.832;8.296;2023-07-13T01:29:45;4.80;;;1.90;;
13985;SDS011;7067;51.832;8.296;2023-07-13T01:32:14;2.53;;;1.92;;
13985;SDS011;7067;51.832;8.296;2023-07-13T01:34:49;3.13;;;1.65;;
13985;SDS011;7067;51.832;8.296;2023-07-13T01:37:19;4.63;;;1.63;;
13985;SDS011;7067;51.832;8.296;2023-07-13T01:39:45;2.92;;;1.95;;
13985;SDS011;7067;51.832;8.296;2023-07-13T01:42:10;4.72;;;1.77;;
13985;SDS011;7067;51.832;8.296;2023-07-13T01:44:35;5.18;;;2.00;;
13985;SDS011;7067;51.832;8.296;2023-07-13T01:47:00;4.97;;;1.55;;
13985;SDS011;7067;51.832;8.296;2023-07-13T01:49:26;5.28;;;1.65;;
13985;SDS011;7067;51.832;8.296;2023-07-13T01:51:51;2.80;;;1.50;;
13985;SDS011;7067;51.832;8.296;2023-07-13T01:54:17;4.80;;;1.83;;
13985;SDS011;7067;51.832;8.296;2023-07-13T01:56:42;4.32;;;2.00;;
13985;SDS011;7067;51.832;8.296;2023-07-13T01:59:08;5.88;;;2.08;;
13985;SDS011;7067;51.832;8.296;2023-07-13T02:01:34;4.15;;;2.00;;
13985;SDS011;7067;51.832;8.296;2023-07-13T02:03:59;5.00;;;2.28;;
13985;SDS011;7067;51.832;8.296;2023-07-13T02:06:24;4.35;;;2.67;;
13985;SDS011;7067;51.832;8.296;2023-07-13T02:08:50;6.18;;;3.55;;
13985;SDS011;7067;51.832;8.296;2023-07-13T02:11:15;5.70;;;2.25;;
13985;SDS011;7067;51.832;8.296;2023-07-13T02:13:41;6.05;;;3.03;;
13985;SDS011;7067;51.832;8.296;2023-07-13T02:16:06;8.27;;;3.10;;
13985;SDS011;7067;51.832;8.296;2023-07-13T02:18:31;5.18;;;3.15;;
13985;SDS011;7067;51.832;8.296;2023-07-13T02:20:57;3.35;;;2.92;;
13985;SDS011;7067;51.832;8.296;2023-07-13T02:23:22;3.80;;;3.33;;
13985;SDS011;7067;51.832;8.296;2023-07-13T02:25:47;4.43;;;3.20;;
13985;SDS011;7067;51.832;8.296;2023-07-13T02:28:13;4.82;;;3.53;;
13985;SDS011;7067;51.832;8.296;2023-07-13T02:30:38;5.35;;;3.40;;
13985;SDS011;7067;51.832;8.296;2023-07-13T02:33:04;4.65;;;4.05;;
13985;SDS011;7067;51.832;8.296;2023-07-13T02:35:29;4.30;;;3.78;;
13985;SDS011;7067;51.832;8.296;2023-07-13T02:37:55;4.22;;;3.40;;
13985;SDS011;7067;51.832;8.296;2023-07-13T02:40:21;4.35;;;3.60;;
13985;SDS011;7067;51.832;8.296;2023-07-13T02:42:46;3.78;;;3.47;;
13985;SDS011;7067;51.832;8.296;2023-07-13T02:45:11;6.05;;;3.60;;
13985;SDS011;7067;51.832;8.296;2023-07-13T02:47:39;4.82;;;3.55;;
13985;SDS011;7067;51.832;8.296;2023-07-13T02:50:06;4.18;;;3.10;;
13985;SDS011;7067;51.832;8.296;2023-07-13T02:52:32;7.25;;;3.47;;
13985;SDS011;7067;51.832;8.296;2023-07-13T02:54:57;4.72;;;3.67;;
13985;SDS011;7067;51.832;8.296;2023-07-13T02:57:22;5.50;;;3.65;;
13985;SDS011;7067;51.832;8.296;2023-07-13T02:59:48;3.55;;;3.15;;
13985;SDS011;7067;51.832;8.296;2023-07-13T03:02:13;5.65;;;3.55;;
13985;SDS011;7067;51.832;8.296;2023-07-13T03:04:38;3.75;;;3.45;;
13985;SDS011;7067;51.832;8.296;2023-07-13T03:07:05;4.07;;;3.08;;
13985;SDS011;7067;51.832;8.296;2023-07-13T03:09:32;3.72;;;3.40;;
13985;SDS011;7067;51.832;8.296;2023-07-13T03:11:58;5.03;;;3.60;;
13985;SDS011;7067;51.832;8.296;2023-07-13T03:14:23;5.03;;;3.13;;
13985;SDS011;7067;51.832;8.296;2023-07-13T03:16:49;3.35;;;2.50;;
13985;SDS011;7067;51.832;8.296;2023-07-13T03:19:14;3.83;;;2.33;;
13985;SDS011;7067;51.832;8.296;2023-07-13T03:21:40;3.10;;;2.22;;
13985;SDS011;7067;51.832;8.296;2023-07-13T03:24:05;4.55;;;3.13;;
13985;SDS011;7067;51.832;8.296;2023-07-13T03:26:31;3.08;;;1.90;;
13985;SDS011;7067;51.832;8.296;2023-07-13T03:28:56;3.25;;;1.98;;
13985;SDS011;7067;51.832;8.296;2023-07-13T03:31:24;4.20;;;2.00;;
13985;SDS011;7067;51.832;8.296;2023-07-13T03:33:51;5.10;;;1.80;;
13985;SDS011;7067;51.832;8.296;2023-07-13T03:36:20;4.00;;;2.30;;
13985;SDS011;7067;51.832;8.296;2023-07-13T03:38:51;3.30;;;2.00;;
13985;SDS011;7067;51.832;8.296;2023-07-13T03:41:18;2.33;;;1.83;;
13985;SDS011;7067;51.832;8.296;2023-07-13T03:43:43;5.50;;;2.10;;
13985;SDS011;7067;51.832;8.296;2023-07-13T03:46:09;4.25;;;1.83;;
13985;SDS011;7067;51.832;8.296;2023-07-13T03:48:34;3.03;;;1.67;;
13985;SDS011;7067;51.832;8.296;2023-07-13T03:51:00;4.13;;;2.08;;
13985;SDS011;7067;51.832;8.296;2023-07-13T03:53:25;5.53;;;1.83;;
13985;SDS011;7067;51.832;8.296;2023-07-13T03:55:51;4.75;;;2.00;;
13985;SDS011;7067;51.832;8.296;2023-07-13T03:58:23;3.42;;;1.50;;
13985;SDS011;7067;51.832;8.296;2023-07-13T04:00:51;5.88;;;1.98;;
13985;SDS011;7067;51.832;8.296;2023-07-13T04:03:16;5.20;;;1.67;;
13985;SDS011;7067;51.832;8.296;2023-07-13T04:05:41;4.57;;;1.98;;
13985;SDS011;7067;51.832;8.296;2023-07-13T04:08:07;2.30;;;1.27;;
13985;SDS011;7067;51.832;8.296;2023-07-13T04:10:32;4.07;;;1.50;;
13985;SDS011;7067;51.832;8.296;2023-07-13T04:12:57;3.97;;;2.10;;
13985;SDS011;7067;51.832;8.296;2023-07-13T04:15:23;3.55;;;1.30;;
13985;SDS011;7067;51.832;8.296;2023-07-13T04:17:48;4.53;;;1.40;;
13985;SDS011;7067;51.832;8.296;2023-07-13T04:20:13;4.03;;;1.40;;
13985;SDS011;7067;51.832;8.296;2023-07-13T04:22:39;5.13;;;1.50;;
13985;SDS011;7067;51.832;8.296;2023-07-13T04:25:04;3.25;;;1.48;;
13985;SDS011;7067;51.832;8.296;2023-07-13T04:27:30;3.47;;;1.85;;
13985;SDS011;7067;51.832;8.296;2023-07-13T04:29:55;2.50;;;1.08;;
13985;SDS011;7067;51.832;8.296;2023-07-13T04:32:21;4.25;;;1.38;;
13985;SDS011;7067;51.832;8.296;2023-07-13T04:34:46;5.68;;;1.40;;
13985;SDS011;7067;51.832;8.296;2023-07-13T04:37:11;5.32;;;1.60;;
13985;SDS011;7067;51.832;8.296;2023-07-13T04:39:37;2.67;;;1.13;;
13985;SDS011;7067;51.832;8.296;2023-07-13T04:42:03;2.53;;;1.30;;
13985;SDS011;7067;51.832;8.296;2023-07-13T04:44:28;2.45;;;1.13;;
13985;SDS011;7067;51.832;8.296;2023-07-13T04:46:54;3.80;;;1.63;;
13985;SDS011;7067;51.832;8.296;2023-07-13T04:49:19;3.75;;;1.98;;
13985;SDS011;7067;51.832;8.296;2023-07-13T04:51:45;4.43;;;1.52;;
13985;SDS011;7067;51.832;8.296;2023-07-13T04:54:10;3.63;;;1.45;;
13985;SDS011;7067;51.832;8.296;2023-07-13T04:56:35;4.05;;;1.50;;
13985;SDS011;7067;51.832;8.296;2023-07-13T04:59:01;3.03;;;1.58;;
13985;SDS011;7067;51.832;8.296;2023-07-13T05:01:27;4.20;;;1.33;;
13985;SDS011;7067;51.832;8.296;2023-07-13T05:03:52;4.10;;;1.40;;
13985;SDS011;7067;51.832;8.296;2023-07-13T05:06:17;6.03;;;1.90;;
13985;SDS011;7067;51.832;8.296;2023-07-13T05:08:43;2.42;;;1.15;;
13985;SDS011;7067;51.832;8.296;2023-07-13T05:11:08;2.33;;;1.50;;
13985;SDS011;7067;51.832;8.296;2023-07-13T05:13:33;5.40;;;1.30;;
13985;SDS011;7067;51.832;8.296;2023-07-13T05:15:59;4.80;;;1.77;;
13985;SDS011;7067;51.832;8.296;2023-07-13T05:18:29;3.00;;;1.30;;
13985;SDS011;7067;51.832;8.296;2023-07-13T05:20:58;2.20;;;1.35;;
13985;SDS011;7067;51.832;8.296;2023-07-13T05:23:28;4.57;;;2.42;;
13985;SDS011;7067;51.832;8.296;2023-07-13T05:25:53;3.75;;;1.25;;
13985;SDS011;7067;51.832;8.296;2023-07-13T05:28:18;3.13;;;1.38;;
13985;SDS011;7067;51.832;8.296;2023-07-13T05:30:47;6.35;;;1.63;;
13985;SDS011;7067;51.832;8.296;2023-07-13T05:33:13;2.40;;;1.33;;
13985;SDS011;7067;51.832;8.296;2023-07-13T05:35:38;2.50;;;1.38;;
13985;SDS011;7067;51.832;8.296;2023-07-13T05:38:04;2.72;;;1.40;;
13985;SDS011;7067;51.832;8.296;2023-07-13T05:40:29;2.45;;;1.33;;
13985;SDS011;7067;51.832;8.296;2023-07-13T05:42:54;4.43;;;1.83;;
13985;SDS011;7067;51.832;8.296;2023-07-13T05:45:20;4.65;;;1.63;;
13985;SDS011;7067;51.832;8.296;2023-07-13T05:47:45;4.65;;;1.40;;
13985;SDS011;7067;51.832;8.296;2023-07-13T05:50:10;4.28;;;1.48;;
13985;SDS011;7067;51.832;8.296;2023-07-13T05:52:36;3.13;;;1.30;;
13985;SDS011;7067;51.832;8.296;2023-07-13T05:55:01;4.22;;;1.48;;
13985;SDS011;7067;51.832;8.296;2023-07-13T05:57:28;3.38;;;1.55;;
13985;SDS011;7067;51.832;8.296;2023-07-13T05:59:53;4.10;;;1.67;;
13985;SDS011;7067;51.832;8.296;2023-07-13T06:02:18;5.38;;;1.80;;
13985;SDS011;7067;51.832;8.296;2023-07-13T06:04:44;5.20;;;1.80;;
13985;SDS011;7067;51.832;8.296;2023-07-13T06:07:09;3.83;;;1.52;;
13985;SDS011;7067;51.832;8.296;2023-07-13T06:09:34;3.05;;;1.90;;
13985;SDS011;7067;51.832;8.296;2023-07-13T06:12:00;7.15;;;1.63;;
13985;SDS011;7067;51.832;8.296;2023-07-13T06:14:25;4.00;;;1.63;;
13985;SDS011;7067;51.832;8.296;2023-07-13T06:16:50;3.70;;;1.55;;
13985;SDS011;7067;51.832;8.296;2023-07-13T06:19:15;4.25;;;1.60;;
13985;SDS011;7067;51.832;8.296;2023-07-13T06:21:41;3.28;;;1.77;;
13985;SDS011;7067;51.832;8.296;2023-07-13T06:24:06;13.25;;;2.80;;
13985;SDS011;7067;51.832;8.296;2023-07-13T06:26:31;3.92;;;1.65;;
13985;SDS011;7067;51.832;8.296;2023-07-13T06:28:57;8.85;;;1.73;;
13985;SDS011;7067;51.832;8.296;2023-07-13T06:31:22;4.65;;;1.80;;
13985;SDS011;7067;51.832;8.296;2023-07-13T06:33:47;5.65;;;1.83;;
13985;SDS011;7067;51.832;8.296;2023-07-13T06:36:13;5.88;;;2.35;;
13985;SDS011;7067;51.832;8.296;2023-07-13T06:38:38;7.57;;;2.33;;
13985;SDS011;7067;51.832;8.296;2023-07-13T06:41:04;6.68;;;2.40;;
13985;SDS011;7067;51.832;8.296;2023-07-13T06:43:30;8.70;;;2.58;;
13985;SDS011;7067;51.832;8.296;2023-07-13T06:45:57;5.78;;;2.38;;
13985;SDS011;7067;51.832;8.296;2023-07-13T06:48:22;6.57;;;2.22;;
13985;SDS011;7067;51.832;8.296;2023-07-13T06:50:48;6.35;;;2.20;;
13985;SDS011;7067;51.832;8.296;2023-07-13T06:53:14;6.05;;;2.08;;
13985;SDS011;7067;51.832;8.296;2023-07-13T06:55:40;7.57;;;1.90;;
13985;SDS011;7067;51.832;8.296;2023-07-13T06:58:05;7.72;;;2.42;;
13985;SDS011;7067;51.832;8.296;2023-07-13T07:00:32;7.60;;;3.08;;
13985;SDS011;7067;51.832;8.296;2023-07-13T07:02:58;4.15;;;2.30;;
13985;SDS011;7067;51.832;8.296;2023-07-13T07:05:23;7.53;;;2.50;;
13985;SDS011;7067;51.832;8.296;2023-07-13T07:07:52;5.70;;;3.00;;
13985;SDS011;7067;51.832;8.296;2023-07-13T07:10:18;3.75;;;1.80;;
13985;SDS011;7067;51.832;8.296;2023-07-13T07:12:44;3.72;;;2.05;;
13985;SDS011;7067;51.832;8.296;2023-07-13T07:15:09;5.32;;;2.15;;
13985;SDS011;7067;51.832;8.296;2023-07-13T07:17:35;4.57;;;2.28;;
13985;SDS011;7067;51.832;8.296;2023-07-13T07:20:01;9.55;;;2.47;;
13985;SDS011;7067;51.832;8.296;2023-07-13T07:22:26;6.03;;;2.30;;
13985;SDS011;7067;51.832;8.296;2023-07-13T07:24:52;3.55;;;2.03;;
13985;SDS011;7067;51.832;8.296;2023-07-13T07:27:18;5.07;;;1.92;;
13985;SDS011;7067;51.832;8.296;2023-07-13T07:29:44;3.28;;;2.60;;
13985;SDS011;7067;51.832;8.296;2023-07-13T07:32:09;4.65;;;2.17;;
13985;SDS011;7067;51.832;8.296;2023-07-13T07:34:34;8.88;;;2.70;;
13985;SDS011;7067;51.832;8.296;2023-07-13T07:37:00;5.25;;;2.38;;
13985;SDS011;7067;51.832;8.296;2023-07-13T07:39:26;4.28;;;2.15;;
13985;SDS011;7067;51.832;8.296;2023-07-13T07:41:52;5.22;;;2.63;;
13985;SDS011;7067;51.832;8.296;2023-07-13T07:44:17;6.60;;;2.28;;
13985;SDS011;7067;51.832;8.296;2023-07-13T07:46:42;6.15;;;2.45;;
13985;SDS011;7067;51.832;8.296;2023-07-13T07:49:08;4.00;;;1.90;;
13985;SDS011;7067;51.832;8.296;2023-07-13T07:51:33;9.43;;;2.40;;
13985;SDS011;7067;51.832;8.296;2023-07-13T07:53:58;6.00;;;2.35;;
13985;SDS011;7067;51.832;8.296;2023-07-13T07:56:24;6.55;;;2.72;;
13985;SDS011;7067;51.832;8.296;2023-07-13T07:58:50;4.57;;;2.38;;
13985;SDS011;7067;51.832;8.296;2023-07-13T08:01:15;5.82;;;2.05;;
13985;SDS011;7067;51.832;8.296;2023-07-13T08:03:41;5.45;;;1.98;;
13985;SDS011;7067;51.832;8.296;2023-07-13T08:06:06;5.78;;;2.00;;
13985;SDS011;7067;51.832;8.296;2023-07-13T08:08:31;5.07;;;2.30;;
13985;SDS011;7067;51.832;8.296;2023-07-13T08:10:57;5.70;;;2.00;;
13985;SDS011;7067;51.832;8.296;2023-07-13T08:13:22;7.95;;;2.50;;
13985;SDS011;7067;51.832;8.296;2023-07-13T08:15:47;9.48;;;2.67;;
13985;SDS011;7067;51.832;8.296;2023-07-13T08:18:14;6.55;;;2.38;;
13985;SDS011;7067;51.832;8.296;2023-07-13T08:20:40;4.90;;;2.22;;
13985;SDS011;7067;51.832;8.296;2023-07-13T08:23:06;9.00;;;2.70;;
13985;SDS011;7067;51.832;8.296;2023-07-13T08:25:32;4.93;;;2.33;;
13985;SDS011;7067;51.832;8.296;2023-07-13T08:27:57;6.28;;;1.88;;
13985;SDS011;7067;51.832;8.296;2023-07-13T08:30:22;6.30;;;2.25;;
13985;SDS011;7067;51.832;8.296;2023-07-13T08:32:48;9.07;;;2.65;;
13985;SDS011;7067;51.832;8.296;2023-07-13T08:35:14;5.00;;;2.08;;
13985;SDS011;7067;51.832;8.296;2023-07-13T08:37:40;7.15;;;2.00;;
13985;SDS011;7067;51.832;8.296;2023-07-13T08:40:07;7.65;;;2.83;;
13985;SDS011;7067;51.832;8.296;2023-07-13T08:47:36;5.20;;;1.70;;
13985;SDS011;7067;51.832;8.296;2023-07-13T08:50:04;4.35;;;1.85;;
13985;SDS011;7067;51.832;8.296;2023-07-13T08:52:31;4.32;;;1.85;;
13985;SDS011;7067;51.832;8.296;2023-07-13T08:55:02;6.80;;;2.22;;
13985;SDS011;7067;51.832;8.296;2023-07-13T08:57:37;4.80;;;2.30;;
13985;SDS011;7067;51.832;8.296;2023-07-13T09:00:04;6.13;;;1.80;;
13985;SDS011;7067;51.832;8.296;2023-07-13T09:02:39;3.50;;;1.75;;
13985;SDS011;7067;51.832;8.296;2023-07-13T09:05:27;5.72;;;1.65;;
13985;SDS011;7067;51.832;8.296;2023-07-13T09:10:24;2.95;;;1.38;;
13985;SDS011;7067;51.832;8.296;2023-07-13T09:13:15;7.53;;;2.65;;
13985;SDS011;7067;51.832;8.296;2023-07-13T09:15:44;3.55;;;1.75;;
13985;SDS011;7067;51.832;8.296;2023-07-13T09:20:46;6.72;;;1.80;;
13985;SDS011;7067;51.832;8.296;2023-07-13T09:23:17;5.53;;;2.53;;
13985;SDS011;7067;51.832;8.296;2023-07-13T09:25:47;3.33;;;2.58;;
13985;SDS011;7067;51.832;8.296;2023-07-13T09:28:23;5.22;;;1.85;;
13985;SDS011;7067;51.832;8.296;2023-07-13T09:33:16;3.13;;;2.20;;
13985;SDS011;7067;51.832;8.296;2023-07-13T09:35:42;3.50;;;2.42;;
13985;SDS011;7067;51.832;8.296;2023-07-13T09:38:14;3.90;;;2.22;;
13985;SDS011;7067;51.832;8.296;2023-07-13T09:43:25;6.43;;;2.40;;
13985;SDS011;7067;51.832;8.296;2023-07-13T09:45:50;2.90;;;2.40;;
13985;SDS011;7067;51.832;8.296;2023-07-13T09:48:16;3.08;;;2.40;;
13985;SDS011;7067;51.832;8.296;2023-07-13T09:50:42;4.13;;;1.90;;
13985;SDS011;7067;51.832;8.296;2023-07-13T09:53:18;4.00;;;2.17;;
13985;SDS011;7067;51.832;8.296;2023-07-13T09:55:47;4.05;;;2.40;;
13985;SDS011;7067;51.832;8.296;2023-07-13T09:58:16;4.10;;;2.20;;
13985;SDS011;7067;51.832;8.296;2023-07-13T10:00:43;3.85;;;2.35;;
13985;SDS011;7067;51.832;8.296;2023-07-13T10:05:49;3.80;;;2.03;;
13985;SDS011;7067;51.832;8.296;2023-07-13T10:08:26;4.82;;;2.33;;
13985;SDS011;7067;51.832;8.296;2023-07-13T10:11:39;3.97;;;1.70;;
13985;SDS011;7067;51.832;8.296;2023-07-13T10:13:54;3.67;;;1.50;;
13985;SDS011;7067;51.832;8.296;2023-07-13T10:16:22;5.68;;;2.33;;
13985;SDS011;7067;51.832;8.296;2023-07-13T10:18:49;3.92;;;2.03;;
13985;SDS011;7067;51.832;8.296;2023-07-13T10:21:19;3.58;;;1.65;;
13985;SDS011;7067;51.832;8.296;2023-07-13T10:23:54;3.63;;;1.60;;
13985;SDS011;7067;51.832;8.296;2023-07-13T10:26:27;3.33;;;1.35;;
13985;SDS011;7067;51.832;8.296;2023-07-13T10:28:57;2.63;;;1.50;;
13985;SDS011;7067;51.832;8.296;2023-07-13T10:31:25;2.93;;;1.87;;
13985;SDS011;7067;51.832;8.296;2023-07-13T10:33:50;3.92;;;2.35;;
13985;SDS011;7067;51.832;8.296;2023-07-13T10:38:53;3.95;;;1.45;;
13985;SDS011;7067;51.832;8.296;2023-07-13T10:41:21;3.55;;;1.50;;
13985;SDS011;7067;51.832;8.296;2023-07-13T10:43:52;3.25;;;1.40;;
13985;SDS011;7067;51.832;8.296;2023-07-13T10:46:19;4.10;;;1.67;;
13985;SDS011;7067;51.832;8.296;2023-07-13T10:48:46;2.05;;;1.35;;
13985;SDS011;7067;51.832;8.296;2023-07-13T10:51:18;3.00;;;1.33;;
13985;SDS011;7067;51.832;8.296;2023-07-13T10:53:46;4.35;;;1.60;;
13985;SDS011;7067;51.832;8.296;2023-07-13T10:59:01;2.65;;;1.52;;
13985;SDS011;7067;51.832;8.296;2023-07-13T11:01:39;1.83;;;1.20;;
13985;SDS011;7067;51.832;8.296;2023-07-13T11:04:08;4.13;;;1.55;;
13985;SDS011;7067;51.832;8.296;2023-07-13T11:06:37;4.72;;;1.30;;
13985;SDS011;7067;51.832;8.296;2023-07-13T11:12:00;4.32;;;1.55;;
13985;SDS011;7067;51.832;8.296;2023-07-13T11:14:33;6.15;;;1.30;;
13985;SDS011;7067;51.832;8.296;2023-07-13T11:22:42;3.28;;;1.70;;
13985;SDS011;7067;51.832;8.296;2023-07-13T11:28:04;4.57;;;2.42;;
13985;SDS011;7067;51.832;8.296;2023-07-13T11:30:34;4.93;;;1.77;;
13985;SDS011;7067;51.832;8.296;2023-07-13T11:33:04;2.17;;;1.20;;
13985;SDS011;7067;51.832;8.296;2023-07-13T11:35:38;3.97;;;1.48;;
13985;SDS011;7067;51.832;8.296;2023-07-13T11:38:19;4.93;;;1.80;;
13985;SDS011;7067;51.832;8.296;2023-07-13T11:40:50;2.05;;;1.45;;
13985;SDS011;7067;51.832;8.296;2023-07-13T11:43:17;2.47;;;1.38;;
13985;SDS011;7067;51.832;8.296;2023-07-13T11:45:43;3.80;;;1.45;;
13985;SDS011;7067;51.832;8.296;2023-07-13T11:48:18;5.20;;;2.05;;
13985;SDS011;7067;51.832;8.296;2023-07-13T11:50:49;7.63;;;1.67;;
13985;SDS011;7067;51.832;8.296;2023-07-13T11:53:16;3.65;;;1.80;;
13985;SDS011;7067;51.832;8.296;2023-07-13T11:55:41;2.47;;;1.30;;
13985;SDS011;7067;51.832;8.296;2023-07-13T11:58:07;2.35;;;1.40;;
13985;SDS011;7067;51.832;8.296;2023-07-13T12:00:34;4.75;;;1.60;;
13985;SDS011;7067;51.832;8.296;2023-07-13T12:03:00;1.95;;;1.30;;
13985;SDS011;7067;51.832;8.296;2023-07-13T12:05:27;2.67;;;1.50;;
13985;SDS011;7067;51.832;8.296;2023-07-13T12:07:53;2.78;;;1.70;;
13985;SDS011;7067;51.832;8.296;2023-07-13T12:10:37;2.45;;;1.67;;
13985;SDS011;7067;51.832;8.296;2023-07-13T12:13:04;2.53;;;2.15;;
13985;SDS011;7067;51.832;8.296;2023-07-13T12:15:40;3.87;;;2.13;;
13985;SDS011;7067;51.832;8.296;2023-07-13T12:20:41;4.40;;;2.08;;
13985;SDS011;7067;51.832;8.296;2023-07-13T12:23:14;4.05;;;1.90;;
13985;SDS011;7067;51.832;8.296;2023-07-13T12:25:47;1.60;;;1.50;;
13985;SDS011;7067;51.832;8.296;2023-07-13T12:28:32;3.20;;;2.15;;
13985;SDS011;7067;51.832;8.296;2023-07-13T12:31:00;3.22;;;2.50;;
13985;SDS011;7067;51.832;8.296;2023-07-13T12:33:28;3.42;;;1.92;;
13985;SDS011;7067;51.832;8.296;2023-07-13T12:35:54;2.97;;;1.70;;
13985;SDS011;7067;51.832;8.296;2023-07-13T12:38:20;3.95;;;1.80;;
13985;SDS011;7067;51.832;8.296;2023-07-13T12:40:48;6.22;;;2.25;;
13985;SDS011;7067;51.832;8.296;2023-07-13T12:43:14;2.95;;;1.85;;
13985;SDS011;7067;51.832;8.296;2023-07-13T12:45:54;3.63;;;1.90;;
13985;SDS011;7067;51.832;8.296;2023-07-13T12:48:20;2.83;;;1.60;;
13985;SDS011;7067;51.832;8.296;2023-07-13T12:50:47;1.67;;;1.58;;
13985;SDS011;7067;51.832;8.296;2023-07-13T12:53:14;3.83;;;2.50;;
13985;SDS011;7067;51.832;8.296;2023-07-13T12:55:45;1.80;;;1.50;;
13985;SDS011;7067;51.832;8.296;2023-07-13T12:58:29;2.83;;;1.70;;
13985;SDS011;7067;51.832;8.296;2023-07-13T13:00:58;2.03;;;1.40;;
13985;SDS011;7067;51.832;8.296;2023-07-13T13:03:35;5.25;;;1.40;;
13985;SDS011;7067;51.832;8.296;2023-07-13T13:06:03;4.90;;;1.70;;
13985;SDS011;7067;51.832;8.296;2023-07-13T13:08:32;3.30;;;1.60;;
13985;SDS011;7067;51.832;8.296;2023-07-13T13:10:58;3.40;;;1.30;;
13985;SDS011;7067;51.832;8.296;2023-07-13T13:13:23;1.83;;;1.30;;
13985;SDS011;7067;51.832;8.296;2023-07-13T13:15:49;2.28;;;1.40;;
13985;SDS011;7067;51.832;8.296;2023-07-13T13:18:16;3.08;;;1.30;;
13985;SDS011;7067;51.832;8.296;2023-07-13T13:20:45;5.20;;;1.60;;
13985;SDS011;7067;51.832;8.296;2023-07-13T13:23:15;2.90;;;1.48;;
13985;SDS011;7067;51.832;8.296;2023-07-13T13:25:42;2.08;;;1.27;;
13985;SDS011;7067;51.832;8.296;2023-07-13T13:28:13;5.43;;;1.67;;
13985;SDS011;7067;51.832;8.296;2023-07-13T13:33:09;3.00;;;1.30;;
13985;SDS011;7067;51.832;8.296;2023-07-13T13:35:37;6.72;;;1.50;;
13985;SDS011;7067;51.832;8.296;2023-07-13T13:38:04;2.95;;;1.33;;
13985;SDS011;7067;51.832;8.296;2023-07-13T13:40:34;1.48;;;1.38;;
13985;SDS011;7067;51.832;8.296;2023-07-13T13:42:59;2.80;;;1.25;;
13985;SDS011;7067;51.832;8.296;2023-07-13T13:45:25;5.57;;;1.95;;
13985;SDS011;7067;51.832;8.296;2023-07-13T13:47:50;4.35;;;1.63;;
13985;SDS011;7067;51.832;8.296;2023-07-13T13:50:17;4.55;;;1.63;;
13985;SDS011;7067;51.832;8.296;2023-07-13T13:52:45;1.95;;;1.50;;
13985;SDS011;7067;51.832;8.296;2023-07-13T13:55:14;2.63;;;1.50;;
13985;SDS011;7067;51.832;8.296;2023-07-13T13:57:40;2.95;;;1.35;;
13985;SDS011;7067;51.832;8.296;2023-07-13T14:00:06;3.78;;;1.75;;
13985;SDS011;7067;51.832;8.296;2023-07-13T14:02:34;2.67;;;1.52;;
13985;SDS011;7067;51.832;8.296;2023-07-13T14:05:01;3.85;;;1.80;;
13985;SDS011;7067;51.832;8.296;2023-07-13T14:07:27;7.00;;;1.67;;
13985;SDS011;7067;51.832;8.296;2023-07-13T14:09:53;3.28;;;1.52;;
13985;SDS011;7067;51.832;8.296;2023-07-13T14:12:20;2.80;;;1.52;;
13985;SDS011;7067;51.832;8.296;2023-07-13T14:14:46;3.55;;;1.50;;
13985;SDS011;7067;51.832;8.296;2023-07-13T14:17:16;2.97;;;1.98;;
13985;SDS011;7067;51.832;8.296;2023-07-13T14:19:46;3.28;;;1.77;;
13985;SDS011;7067;51.832;8.296;2023-07-13T14:22:12;3.28;;;2.42;;
13985;SDS011;7067;51.832;8.296;2023-07-13T14:24:37;4.10;;;2.28;;
13985;SDS011;7067;51.832;8.296;2023-07-13T14:27:03;3.15;;;2.00;;
13985;SDS011;7067;51.832;8.296;2023-07-13T14:29:28;4.68;;;1.88;;
13985;SDS011;7067;51.832;8.296;2023-07-13T14:31:53;3.83;;;1.95;;
13985;SDS011;7067;51.832;8.296;2023-07-13T14:34:19;3.60;;;1.73;;
13985;SDS011;7067;51.832;8.296;2023-07-13T14:36:46;3.78;;;2.00;;
13985;SDS011;7067;51.832;8.296;2023-07-13T14:39:15;6.03;;;2.53;;
13985;SDS011;7067;51.832;8.296;2023-07-13T14:41:42;2.97;;;1.80;;
13985;SDS011;7067;51.832;8.296;2023-07-13T14:44:12;2.97;;;1.60;;
13985;SDS011;7067;51.832;8.296;2023-07-13T14:46:38;3.90;;;1.92;;
13985;SDS011;7067;51.832;8.296;2023-07-13T14:49:04;2.05;;;1.85;;
13985;SDS011;7067;51.832;8.296;2023-07-13T14:51:32;3.45;;;2.17;;
13985;SDS011;7067;51.832;8.296;2023-07-13T14:54:00;4.13;;;2.22;;
13985;SDS011;7067;51.832;8.296;2023-07-13T14:56:26;5.88;;;2.60;;
13985;SDS011;7067;51.832;8.296;2023-07-13T14:58:52;3.30;;;2.35;;
13985;SDS011;7067;51.832;8.296;2023-07-13T15:01:18;2.25;;;1.88;;
13985;SDS011;7067;51.832;8.296;2023-07-13T15:03:44;2.53;;;2.00;;
13985;SDS011;7067;51.832;8.296;2023-07-13T15:06:13;3.17;;;1.98;;
13985;SDS011;7067;51.832;8.296;2023-07-13T15:08:39;3.35;;;2.33;;
13985;SDS011;7067;51.832;8.296;2023-07-13T15:11:06;2.15;;;1.95;;
13985;SDS011;7067;51.832;8.296;2023-07-13T15:13:37;1.80;;;1.70;;
13985;SDS011;7067;51.832;8.296;2023-07-13T15:16:03;2.05;;;1.77;;
13985;SDS011;7067;51.832;8.296;2023-07-13T15:18:29;2.30;;;2.10;;
13985;SDS011;7067;51.832;8.296;2023-07-13T15:20:55;2.38;;;1.88;;
13985;SDS011;7067;51.832;8.296;2023-07-13T15:23:22;5.15;;;1.85;;
13985;SDS011;7067;51.832;8.296;2023-07-13T15:25:48;3.83;;;2.10;;
13985;SDS011;7067;51.832;8.296;2023-07-13T15:28:13;3.20;;;2.40;;
13985;SDS011;7067;51.832;8.296;2023-07-13T15:30:43;2.13;;;1.80;;
13985;SDS011;7067;51.832;8.296;2023-07-13T15:33:14;2.70;;;2.00;;
13985;SDS011;7067;51.832;8.296;2023-07-13T15:35:42;4.40;;;2.38;;
13985;SDS011;7067;51.832;8.296;2023-07-13T15:38:14;2.05;;;1.85;;
13985;SDS011;7067;51.832;8.296;2023-07-13T15:40:51;2.60;;;1.70;;
13985;SDS011;7067;51.832;8.296;2023-07-13T15:43:17;2.03;;;1.65;;